sensor_id;sensor_type;location;lat;lon;timestamp;pressure;altitude;pressure_sealevel;temperature;humidity
38852;BME280;24605;50.092;9.182;2023-11-21T00:00:38;154104.22;;;8.11;100.00
38852;BME280;24605;50.092;9.182;2023-11-21T00:03:05;154122.44;;;8.18;100.00
38852;BME280;24605;50.092;9.182;2023-11-21T00:05:33;154145.88;;;8.27;100.00
38852;BME280;24605;50.092;9.182;2023-11-21T00:08:00;154091.19;;;8.06;100.00
38852;BME280;24605;50.092;9.182;2023-11-21T00:10:26;154127.59;;;8.20;100.00
38852;BME280;24605;50.092;9.182;2023-11-21T00:12:54;154091.19;;;8.06;100.00
38852;BME280;24605;50.092;9.182;2023-11-21T00:15:20;154122.44;;;8.18;100.00
38852;BME280;24605;50.092;9.182;2023-11-21T00:17:47;154121.09;;;8.18;100.00
38852;BME280;24605;50.092;9.182;2023-11-21T00:20:13;154117.22;;;8.16;100.00
38852;BME280;24605;50.092;9.182;2023-11-21T00:22:41;154108.13;;;8.12;100.00
38852;BME280;24605;50.092;9.182;2023-11-21T00:25:08;154104.22;;;8.11;100.00
38852;BME280;24605;50.092;9.182;2023-11-21T00:27:35;154106.78;;;8.12;100.00
38852;BME280;24605;50.092;9.182;2023-11-21T00:30:02;154052.16;;;7.90;100.00
38852;BME280;24605;50.092;9.182;2023-11-21T00:32:30;154145.88;;;8.27;100.00
38852;BME280;24605;50.092;9.182;2023-11-21T00:34:57;154145.88;;;8.27;100.00
38852;BME280;24605;50.092;9.182;2023-11-21T00:37:24;154128.94;;;8.21;100.00
38852;BME280;24605;50.092;9.182;2023-11-21T00:39:52;154144.53;;;8.27;100.00
38852;BME280;24605;50.092;9.182;2023-11-21T00:42:18;154148.47;;;8.28;100.00
38852;BME280;24605;50.092;9.182;2023-11-21T00:44:46;154113.31;;;8.14;100.00
38852;BME280;24605;50.092;9.182;2023-11-21T00:47:13;154134.16;;;8.23;100.00
38852;BME280;24605;50.092;9.182;2023-11-21T00:49:39;154138.03;;;8.24;100.00
38852;BME280;24605;50.092;9.182;2023-11-21T00:52:06;154104.22;;;8.11;100.00
38852;BME280;24605;50.092;9.182;2023-11-21T00:54:33;154109.38;;;8.13;100.00
38852;BME280;24605;50.092;9.182;2023-11-21T00:57:01;154126.31;;;8.20;100.00
38852;BME280;24605;50.092;9.182;2023-11-21T00:59:28;154156.25;;;8.31;100.00
38852;BME280;24605;50.092;9.182;2023-11-21T01:01:55;154156.25;;;8.31;100.00
38852;BME280;24605;50.092;9.182;2023-11-21T01:04:25;154151.03;;;8.29;100.00
38852;BME280;24605;50.092;9.182;2023-11-21T01:06:52;154161.47;;;8.34;100.00
38852;BME280;24605;50.092;9.182;2023-11-21T01:09:18;154114.59;;;8.15;100.00
38852;BME280;24605;50.092;9.182;2023-11-21T01:11:45;154110.72;;;8.13;100.00
38852;BME280;24605;50.092;9.182;2023-11-21T01:14:13;154114.59;;;8.15;100.00
38852;BME280;24605;50.092;9.182;2023-11-21T01:16:39;154151.03;;;8.29;100.00
38852;BME280;24605;50.092;9.182;2023-11-21T01:19:06;154135.44;;;8.23;100.00
38852;BME280;24605;50.092;9.182;2023-11-21T01:21:32;154156.25;;;8.31;100.00
38852;BME280;24605;50.092;9.182;2023-11-21T01:23:59;154130.22;;;8.21;100.00
38852;BME280;24605;50.092;9.182;2023-11-21T01:26:25;154143.25;;;8.26;100.00
38852;BME280;24605;50.092;9.182;2023-11-21T01:28:52;154147.13;;;8.28;100.00
38852;BME280;24605;50.092;9.182;2023-11-21T01:31:19;154123.72;;;8.19;100.00
38852;BME280;24605;50.092;9.182;2023-11-21T01:33:46;154106.78;;;8.12;100.00
38852;BME280;24605;50.092;9.182;2023-11-21T01:36:12;154122.44;;;8.18;100.00
38852;BME280;24605;50.092;9.182;2023-11-21T01:38:39;154112.00;;;8.14;100.00
38852;BME280;24605;50.092;9.182;2023-11-21T01:41:05;154084.69;;;8.03;100.00
38852;BME280;24605;50.092;9.182;2023-11-21T01:43:32;154089.91;;;8.05;100.00
38852;BME280;24605;50.092;9.182;2023-11-21T01:45:59;154082.09;;;8.02;100.00
38852;BME280;24605;50.092;9.182;2023-11-21T01:48:27;154083.38;;;8.03;100.00
38852;BME280;24605;50.092;9.182;2023-11-21T01:50:54;154078.19;;;8.00;100.00
38852;BME280;24605;50.092;9.182;2023-11-21T01:53:21;154071.66;;;7.98;100.00
38852;BME280;24605;50.092;9.182;2023-11-21T01:55:47;154100.28;;;8.09;100.00
38852;BME280;24605;50.092;9.182;2023-11-21T01:58:14;154087.31;;;8.04;100.00
38852;BME280;24605;50.092;9.182;2023-11-21T02:00:42;154078.19;;;8.00;100.00
38852;BME280;24605;50.092;9.182;2023-11-21T02:03:08;154101.63;;;8.10;100.00
38852;BME280;24605;50.092;9.182;2023-11-21T02:05:36;154108.13;;;8.12;100.00
38852;BME280;24605;50.092;9.182;2023-11-21T02:08:03;154160.13;;;8.33;100.00
38852;BME280;24605;50.092;9.182;2023-11-21T02:10:30;154128.94;;;8.21;100.00
38852;BME280;24605;50.092;9.182;2023-11-21T02:12:56;154135.44;;;8.23;100.00
38852;BME280;24605;50.092;9.182;2023-11-21T02:15:23;154109.38;;;8.13;100.00
38852;BME280;24605;50.092;9.182;2023-11-21T02:17:54;154104.22;;;8.11;100.00
38852;BME280;24605;50.092;9.182;2023-11-21T02:20:21;154104.22;;;8.11;100.00
38852;BME280;24605;50.092;9.182;2023-11-21T02:22:52;154060.00;;;7.93;100.00
38852;BME280;24605;50.092;9.182;2023-11-21T02:25:23;154100.28;;;8.09;100.00
38852;BME280;24605;50.092;9.182;2023-11-21T02:27:49;154078.19;;;8.00;100.00
38852;BME280;24605;50.092;9.182;2023-11-21T02:30:16;154076.88;;;8.00;100.00
38852;BME280;24605;50.092;9.182;2023-11-21T02:32:44;154100.28;;;8.09;100.00
38852;BME280;24605;50.092;9.182;2023-11-21T02:35:11;154106.78;;;8.12;100.00
38852;BME280;24605;50.092;9.182;2023-11-21T02:37:37;154092.50;;;8.06;100.00
38852;BME280;24605;50.092;9.182;2023-11-21T02:40:09;154138.03;;;8.24;100.00
38852;BME280;24605;50.092;9.182;2023-11-21T02:42:37;154148.47;;;8.28;100.00
38852;BME280;24605;50.092;9.182;2023-11-21T02:45:05;154078.19;;;8.00;100.00
38852;BME280;24605;50.092;9.182;2023-11-21T02:47:32;154074.25;;;7.99;100.00
38852;BME280;24605;50.092;9.182;2023-11-21T02:49:58;154063.88;;;7.95;100.00
38852;BME280;24605;50.092;9.182;2023-11-21T02:52:25;154043.06;;;7.87;100.00
38852;BME280;24605;50.092;9.182;2023-11-21T02:54:52;154056.06;;;7.92;100.00
38852;BME280;24605;50.092;9.182;2023-11-21T02:57:20;154056.06;;;7.92;100.00
38852;BME280;24605;50.092;9.182;2023-11-21T02:59:45;154041.72;;;7.86;100.00
38852;BME280;24605;50.092;9.182;2023-11-21T03:02:12;154040.47;;;7.86;100.00
38852;BME280;24605;50.092;9.182;2023-11-21T03:04:38;154050.84;;;7.90;100.00
38852;BME280;24605;50.092;9.182;2023-11-21T03:07:04;154046.94;;;7.88;100.00
38852;BME280;24605;50.092;9.182;2023-11-21T03:09:31;154063.88;;;7.95;100.00
38852;BME280;24605;50.092;9.182;2023-11-21T03:11:57;154057.38;;;7.92;100.00
38852;BME280;24605;50.092;9.182;2023-11-21T03:14:25;154054.78;;;7.91;100.00
38852;BME280;24605;50.092;9.182;2023-11-21T03:16:51;154057.38;;;7.92;100.00
38852;BME280;24605;50.092;9.182;2023-11-21T03:19:18;154075.59;;;7.99;100.00
38852;BME280;24605;50.092;9.182;2023-11-21T03:21:44;154065.16;;;7.95;100.00
38852;BME280;24605;50.092;9.182;2023-11-21T03:24:11;154075.59;;;7.99;100.00
38852;BME280;24605;50.092;9.182;2023-11-21T03:26:38;154087.31;;;8.04;100.00
38852;BME280;24605;50.092;9.182;2023-11-21T03:29:04;154079.47;;;8.01;100.00
38852;BME280;24605;50.092;9.182;2023-11-21T03:31:32;154061.25;;;7.94;100.00
38852;BME280;24605;50.092;9.182;2023-11-21T03:33:59;154058.66;;;7.93;100.00
38852;BME280;24605;50.092;9.182;2023-11-21T03:36:25;154067.75;;;7.96;100.00
38852;BME280;24605;50.092;9.182;2023-11-21T03:38:51;154067.75;;;7.96;100.00
38852;BME280;24605;50.092;9.182;2023-11-21T03:41:18;154061.25;;;7.94;100.00
38852;BME280;24605;50.092;9.182;2023-11-21T03:43:44;154056.06;;;7.92;100.00
38852;BME280;24605;50.092;9.182;2023-11-21T03:46:11;154060.00;;;7.93;100.00
38852;BME280;24605;50.092;9.182;2023-11-21T03:48:39;154060.00;;;7.93;100.00
38852;BME280;24605;50.092;9.182;2023-11-21T03:51:07;154028.75;;;7.81;100.00
38852;BME280;24605;50.092;9.182;2023-11-21T03:53:33;154026.13;;;7.80;100.00
38852;BME280;24605;50.092;9.182;2023-11-21T03:56:01;154062.53;;;7.94;100.00
38852;BME280;24605;50.092;9.182;2023-11-21T03:58:28;154054.78;;;7.91;100.00
38852;BME280;24605;50.092;9.182;2023-11-21T04:00:54;154040.47;;;7.86;100.00
38852;BME280;24605;50.092;9.182;2023-11-21T04:03:21;153996.22;;;7.68;100.00
38852;BME280;24605;50.092;9.182;2023-11-21T04:05:49;154014.44;;;7.75;100.00
38852;BME280;24605;50.092;9.182;2023-11-21T04:08:15;154028.75;;;7.81;100.00
38852;BME280;24605;50.092;9.182;2023-11-21T04:10:41;154031.34;;;7.82;100.00
38852;BME280;24605;50.092;9.182;2023-11-21T04:13:08;153942.91;;;7.47;100.00
38852;BME280;24605;50.092;9.182;2023-11-21T04:15:35;153957.22;;;7.52;100.00
38852;BME280;24605;50.092;9.182;2023-11-21T04:18:02;154013.16;;;7.75;100.00
38852;BME280;24605;50.092;9.182;2023-11-21T04:20:28;153944.19;;;7.47;100.00
38852;BME280;24605;50.092;9.182;2023-11-21T04:22:56;154023.53;;;7.79;100.00
38852;BME280;24605;50.092;9.182;2023-11-21T04:25:22;154033.97;;;7.83;100.00
38852;BME280;24605;50.092;9.182;2023-11-21T04:27:49;153945.50;;;7.48;100.00
38852;BME280;24605;50.092;9.182;2023-11-21T04:30:16;153942.91;;;7.47;100.00
38852;BME280;24605;50.092;9.182;2023-11-21T04:32:42;153959.81;;;7.53;100.00
38852;BME280;24605;50.092;9.182;2023-11-21T04:35:09;153980.63;;;7.62;100.00
38852;BME280;24605;50.092;9.182;2023-11-21T04:37:35;153992.34;;;7.66;100.00
38852;BME280;24605;50.092;9.182;2023-11-21T04:40:04;154049.56;;;7.89;100.00
38852;BME280;24605;50.092;9.182;2023-11-21T04:42:34;154041.72;;;7.86;100.00
38852;BME280;24605;50.092;9.182;2023-11-21T04:45:00;154041.72;;;7.86;100.00
38852;BME280;24605;50.092;9.182;2023-11-21T04:47:30;154041.72;;;7.86;100.00
38852;BME280;24605;50.092;9.182;2023-11-21T04:49:56;154043.06;;;7.87;100.00
38852;BME280;24605;50.092;9.182;2023-11-21T04:52:23;154045.66;;;7.88;100.00
38852;BME280;24605;50.092;9.182;2023-11-21T04:54:49;154063.88;;;7.95;100.00
38852;BME280;24605;50.092;9.182;2023-11-21T04:57:17;154053.44;;;7.91;100.00
38852;BME280;24605;50.092;9.182;2023-11-21T04:59:44;154036.56;;;7.84;100.00
38852;BME280;24605;50.092;9.182;2023-11-21T05:02:10;154000.13;;;7.69;100.00
38852;BME280;24605;50.092;9.182;2023-11-21T05:04:37;154017.03;;;7.76;100.00
38852;BME280;24605;50.092;9.182;2023-11-21T05:07:04;154011.81;;;7.74;100.00
38852;BME280;24605;50.092;9.182;2023-11-21T05:09:30;154018.31;;;7.77;100.00
38852;BME280;24605;50.092;9.182;2023-11-21T05:11:57;154030.03;;;7.81;100.00
38852;BME280;24605;50.092;9.182;2023-11-21T05:14:26;154022.25;;;7.78;100.00
38852;BME280;24605;50.092;9.182;2023-11-21T05:16:53;154093.78;;;8.07;100.00
38852;BME280;24605;50.092;9.182;2023-11-21T05:19:19;153955.88;;;7.52;100.00
38852;BME280;24605;50.092;9.182;2023-11-21T05:21:46;153909.06;;;7.33;100.00
38852;BME280;24605;50.092;9.182;2023-11-21T05:24:12;153890.88;;;7.26;100.00
38852;BME280;24605;50.092;9.182;2023-11-21T05:26:39;153899.97;;;7.30;100.00
38852;BME280;24605;50.092;9.182;2023-11-21T05:29:05;153915.59;;;7.36;100.00
38852;BME280;24605;50.092;9.182;2023-11-21T05:31:33;153923.38;;;7.39;100.00
38852;BME280;24605;50.092;9.182;2023-11-21T05:34:00;153916.88;;;7.36;100.00
38852;BME280;24605;50.092;9.182;2023-11-21T05:36:26;153872.66;;;7.19;100.00
38852;BME280;24605;50.092;9.182;2023-11-21T05:38:53;153844.06;;;7.08;100.00
38852;BME280;24605;50.092;9.182;2023-11-21T05:41:19;153883.06;;;7.23;100.00
38852;BME280;24605;50.092;9.182;2023-11-21T05:43:46;153901.28;;;7.30;100.00
38852;BME280;24605;50.092;9.182;2023-11-21T05:46:13;153898.69;;;7.29;100.00
38852;BME280;24605;50.092;9.182;2023-11-21T05:48:41;153877.88;;;7.21;100.00
38852;BME280;24605;50.092;9.182;2023-11-21T05:51:07;153883.06;;;7.23;100.00
38852;BME280;24605;50.092;9.182;2023-11-21T05:53:34;153903.91;;;7.31;100.00
38852;BME280;24605;50.092;9.182;2023-11-21T05:56:00;153931.19;;;7.42;100.00
38852;BME280;24605;50.092;9.182;2023-11-21T05:58:29;153950.69;;;7.50;100.00
38852;BME280;24605;50.092;9.182;2023-11-21T06:00:55;153915.59;;;7.36;100.00
38852;BME280;24605;50.092;9.182;2023-11-21T06:03:22;153920.78;;;7.38;100.00
38852;BME280;24605;50.092;9.182;2023-11-21T06:05:50;153940.28;;;7.46;100.00
38852;BME280;24605;50.092;9.182;2023-11-21T06:08:16;153961.09;;;7.54;100.00
38852;BME280;24605;50.092;9.182;2023-11-21T06:10:42;153979.31;;;7.61;100.00
38852;BME280;24605;50.092;9.182;2023-11-21T06:13:09;153945.50;;;7.48;100.00
38852;BME280;24605;50.092;9.182;2023-11-21T06:15:36;154004.06;;;7.71;100.00
38852;BME280;24605;50.092;9.182;2023-11-21T06:18:03;154000.13;;;7.69;100.00
38852;BME280;24605;50.092;9.182;2023-11-21T06:20:31;153966.31;;;7.56;100.00
38852;BME280;24605;50.092;9.182;2023-11-21T06:22:59;153950.69;;;7.50;100.00
38852;BME280;24605;50.092;9.182;2023-11-21T06:25:29;153924.72;;;7.40;100.00
38852;BME280;24605;50.092;9.182;2023-11-21T06:27:58;153935.09;;;7.44;100.00
38852;BME280;24605;50.092;9.182;2023-11-21T06:30:24;153958.50;;;7.53;100.00
38852;BME280;24605;50.092;9.182;2023-11-21T06:32:51;153952.00;;;7.50;100.00
38852;BME280;24605;50.092;9.182;2023-11-21T06:35:17;153992.34;;;7.66;100.00
38852;BME280;24605;50.092;9.182;2023-11-21T06:37:44;154037.84;;;7.84;100.00
38852;BME280;24605;50.092;9.182;2023-11-21T06:40:14;154013.16;;;7.75;100.00
38852;BME280;24605;50.092;9.182;2023-11-21T06:42:41;154058.66;;;7.93;100.00
38852;BME280;24605;50.092;9.182;2023-11-21T06:45:09;154050.84;;;7.90;100.00
38852;BME280;24605;50.092;9.182;2023-11-21T06:47:36;154061.25;;;7.94;100.00
38852;BME280;24605;50.092;9.182;2023-11-21T06:50:03;154060.00;;;7.93;100.00
38852;BME280;24605;50.092;9.182;2023-11-21T06:52:30;154010.53;;;7.74;100.00
38852;BME280;24605;50.092;9.182;2023-11-21T06:54:56;153979.31;;;7.61;100.00
38852;BME280;24605;50.092;9.182;2023-11-21T06:57:24;153966.31;;;7.56;100.00
38852;BME280;24605;50.092;9.182;2023-11-21T06:59:51;153980.63;;;7.62;100.00
38852;BME280;24605;50.092;9.182;2023-11-21T07:02:17;153976.69;;;7.60;100.00
38852;BME280;24605;50.092;9.182;2023-11-21T07:04:44;153983.19;;;7.63;100.00
38852;BME280;24605;50.092;9.182;2023-11-21T07:07:11;153974.09;;;7.59;100.00
38852;BME280;24605;50.092;9.182;2023-11-21T07:09:38;153944.19;;;7.47;100.00
38852;BME280;24605;50.092;9.182;2023-11-21T07:12:05;153942.91;;;7.47;100.00
38852;BME280;24605;50.092;9.182;2023-11-21T07:14:34;153971.47;;;7.58;100.00
38852;BME280;24605;50.092;9.182;2023-11-21T07:17:00;153970.19;;;7.58;100.00
38852;BME280;24605;50.092;9.182;2023-11-21T07:19:27;153924.72;;;7.40;100.00
38852;BME280;24605;50.092;9.182;2023-11-21T07:21:54;153914.28;;;7.35;100.00
38852;BME280;24605;50.092;9.182;2023-11-21T07:24:21;153862.25;;;7.15;100.00
38852;BME280;24605;50.092;9.182;2023-11-21T07:26:48;153896.09;;;7.28;100.00
38852;BME280;24605;50.092;9.182;2023-11-21T07:29:15;153838.84;;;7.05;100.00
38852;BME280;24605;50.092;9.182;2023-11-21T07:31:43;153842.78;;;7.07;100.00
38852;BME280;24605;50.092;9.182;2023-11-21T07:34:09;153888.25;;;7.25;100.00
38852;BME280;24605;50.092;9.182;2023-11-21T07:36:37;153854.47;;;7.12;100.00
38852;BME280;24605;50.092;9.182;2023-11-21T07:39:03;153837.56;;;7.05;100.00
38852;BME280;24605;50.092;9.182;2023-11-21T07:41:31;153859.69;;;7.14;100.00
38852;BME280;24605;50.092;9.182;2023-11-21T07:43:58;153893.47;;;7.27;100.00
38852;BME280;24605;50.092;9.182;2023-11-21T07:46:25;153955.88;;;7.52;100.00
38852;BME280;24605;50.092;9.182;2023-11-21T07:48:53;153968.94;;;7.57;100.00
38852;BME280;24605;50.092;9.182;2023-11-21T07:51:20;153941.56;;;7.46;100.00
38852;BME280;24605;50.092;9.182;2023-11-21T07:53:47;153920.78;;;7.38;100.00
38852;BME280;24605;50.092;9.182;2023-11-21T07:56:13;153945.50;;;7.48;100.00
38852;BME280;24605;50.092;9.182;2023-11-21T07:58:40;153883.06;;;7.23;100.00
38852;BME280;24605;50.092;9.182;2023-11-21T08:01:06;153997.50;;;7.68;100.00
38852;BME280;24605;50.092;9.182;2023-11-21T08:03:33;153989.72;;;7.65;100.00
38852;BME280;24605;50.092;9.182;2023-11-21T08:06:01;153890.88;;;7.26;100.00
38852;BME280;24605;50.092;9.182;2023-11-21T08:08:28;153991.00;;;7.66;100.00
38852;BME280;24605;50.092;9.182;2023-11-21T08:10:55;154060.00;;;7.93;100.00
38852;BME280;24605;50.092;9.182;2023-11-21T08:13:22;154057.38;;;7.92;100.00
38852;BME280;24605;50.092;9.182;2023-11-21T08:15:49;154085.97;;;8.04;100.00
38852;BME280;24605;50.092;9.182;2023-11-21T08:18:16;154062.53;;;7.94;100.00
38852;BME280;24605;50.092;9.182;2023-11-21T08:20:43;154114.59;;;8.15;100.00
38852;BME280;24605;50.092;9.182;2023-11-21T08:23:14;154162.75;;;8.34;100.00
38852;BME280;24605;50.092;9.182;2023-11-21T08:25:42;154165.34;;;8.35;100.00
38852;BME280;24605;50.092;9.182;2023-11-21T08:28:08;154157.56;;;8.32;100.00
38852;BME280;24605;50.092;9.182;2023-11-21T08:30:35;154123.72;;;8.19;100.00
38852;BME280;24605;50.092;9.182;2023-11-21T08:33:01;154052.16;;;7.90;100.00
38852;BME280;24605;50.092;9.182;2023-11-21T08:35:28;154060.00;;;7.93;100.00
38852;BME280;24605;50.092;9.182;2023-11-21T08:37:55;154043.06;;;7.87;100.00
38852;BME280;24605;50.092;9.182;2023-11-21T08:40:23;154100.28;;;8.09;100.00
38852;BME280;24605;50.092;9.182;2023-11-21T08:42:50;154114.59;;;8.15;100.00
38852;BME280;24605;50.092;9.182;2023-11-21T08:45:18;154076.88;;;8.00;100.00
38852;BME280;24605;50.092;9.182;2023-11-21T08:47:45;154112.00;;;8.14;100.00
38852;BME280;24605;50.092;9.182;2023-11-21T08:50:12;154210.97;;;8.53;100.00
38852;BME280;24605;50.092;9.182;2023-11-21T08:52:39;154214.88;;;8.55;100.00
38852;BME280;24605;50.092;9.182;2023-11-21T08:55:06;154154.97;;;8.31;100.00
38852;BME280;24605;50.092;9.182;2023-11-21T08:57:35;154257.84;;;8.72;100.00
38852;BME280;24605;50.092;9.182;2023-11-21T09:00:02;154304.66;;;8.90;100.00
38852;BME280;24605;50.092;9.182;2023-11-21T09:02:30;154283.84;;;8.82;100.00
38852;BME280;24605;50.092;9.182;2023-11-21T09:04:57;154231.81;;;8.61;100.00
38852;BME280;24605;50.092;9.182;2023-11-21T09:07:24;154269.56;;;8.76;100.00
38852;BME280;24605;50.092;9.182;2023-11-21T09:09:50;154175.78;;;8.39;100.00
38852;BME280;24605;50.092;9.182;2023-11-21T09:12:17;154247.41;;;8.68;100.00
38852;BME280;24605;50.092;9.182;2023-11-21T09:14:46;154369.81;;;9.16;100.00
38852;BME280;24605;50.092;9.182;2023-11-21T09:17:12;154329.44;;;9.00;100.00
38852;BME280;24605;50.092;9.182;2023-11-21T09:19:39;154395.81;;;9.27;100.00
38852;BME280;24605;50.092;9.182;2023-11-21T09:22:06;154351.53;;;9.09;100.00
38852;BME280;24605;50.092;9.182;2023-11-21T09:24:33;154330.72;;;9.01;100.00
38852;BME280;24605;50.092;9.182;2023-11-21T09:27:00;154322.94;;;8.98;100.00
38852;BME280;24605;50.092;9.182;2023-11-21T09:29:26;154380.22;;;9.20;100.00
38852;BME280;24605;50.092;9.182;2023-11-21T09:31:55;154354.16;;;9.10;100.00
38852;BME280;24605;50.092;9.182;2023-11-21T09:34:24;154334.66;;;9.02;100.00
38852;BME280;24605;50.092;9.182;2023-11-21T09:36:51;154278.66;;;8.80;100.00
38852;BME280;24605;50.092;9.182;2023-11-21T09:39:17;154328.09;;;9.00;100.00
38852;BME280;24605;50.092;9.182;2023-11-21T09:41:46;154399.75;;;9.28;100.00
38852;BME280;24605;50.092;9.182;2023-11-21T09:44:18;154354.16;;;9.10;100.00
38852;BME280;24605;50.092;9.182;2023-11-21T09:46:47;154225.31;;;8.59;100.00
38852;BME280;24605;50.092;9.182;2023-11-21T09:49:18;154203.16;;;8.50;100.00
38852;BME280;24605;50.092;9.182;2023-11-21T09:51:45;154122.44;;;8.18;100.00
38852;BME280;24605;50.092;9.182;2023-11-21T09:54:15;154231.81;;;8.61;100.00
38852;BME280;24605;50.092;9.182;2023-11-21T09:56:42;154141.94;;;8.26;100.00
38852;BME280;24605;50.092;9.182;2023-11-21T09:59:12;154229.19;;;8.60;100.00
38852;BME280;24605;50.092;9.182;2023-11-21T10:01:41;154141.94;;;8.26;100.00
38852;BME280;24605;50.092;9.182;2023-11-21T10:04:08;154196.66;;;8.48;100.00
38852;BME280;24605;50.092;9.182;2023-11-21T10:06:39;154140.66;;;8.25;100.00
38852;BME280;24605;50.092;9.182;2023-11-21T10:09:07;154057.38;;;7.92;100.00
38852;BME280;24605;50.092;9.182;2023-11-21T10:11:39;154069.09;;;7.97;100.00
38852;BME280;24605;50.092;9.182;2023-11-21T10:14:08;153987.13;;;7.64;100.00
38852;BME280;24605;50.092;9.182;2023-11-21T10:16:38;154019.63;;;7.77;100.00
38852;BME280;24605;50.092;9.182;2023-11-21T10:19:05;154030.03;;;7.81;100.00
38852;BME280;24605;50.092;9.182;2023-11-21T10:21:32;154013.16;;;7.75;100.00
38852;BME280;24605;50.092;9.182;2023-11-21T10:24:00;154030.03;;;7.81;100.00
38852;BME280;24605;50.092;9.182;2023-11-21T10:26:28;153967.59;;;7.57;100.00
38852;BME280;24605;50.092;9.182;2023-11-21T10:28:57;154030.03;;;7.81;100.00
38852;BME280;24605;50.092;9.182;2023-11-21T10:31:24;154066.47;;;7.96;100.00
38852;BME280;24605;50.092;9.182;2023-11-21T10:33:50;153968.94;;;7.57;100.00
38852;BME280;24605;50.092;9.182;2023-11-21T10:36:25;154069.09;;;7.97;100.00
38852;BME280;24605;50.092;9.182;2023-11-21T10:38:52;154067.75;;;7.96;100.00
38852;BME280;24605;50.092;9.182;2023-11-21T10:41:21;154167.97;;;8.36;100.00
38852;BME280;24605;50.092;9.182;2023-11-21T10:43:47;154207.03;;;8.52;100.00
38852;BME280;24605;50.092;9.182;2023-11-21T10:46:14;154257.84;;;8.72;100.00
38852;BME280;24605;50.092;9.182;2023-11-21T10:48:41;154144.53;;;8.27;100.00
38852;BME280;24605;50.092;9.182;2023-11-21T10:51:08;154218.75;;;8.56;100.00
38852;BME280;24605;50.092;9.182;2023-11-21T10:53:38;154210.97;;;8.53;100.00
38852;BME280;24605;50.092;9.182;2023-11-21T10:56:06;154293.00;;;8.86;100.00
38852;BME280;24605;50.092;9.182;2023-11-21T10:58:38;154291.66;;;8.85;100.00
38852;BME280;24605;50.092;9.182;2023-11-21T11:01:06;154255.22;;;8.71;100.00
38852;BME280;24605;50.092;9.182;2023-11-21T11:03:35;154317.72;;;8.96;100.00
38852;BME280;24605;50.092;9.182;2023-11-21T11:06:03;154459.66;;;9.52;100.00
38852;BME280;24605;50.092;9.182;2023-11-21T11:08:34;154329.44;;;9.00;100.00
38852;BME280;24605;50.092;9.182;2023-11-21T11:11:01;154367.22;;;9.15;100.00
38852;BME280;24605;50.092;9.182;2023-11-21T11:13:28;154399.75;;;9.28;100.00
38852;BME280;24605;50.092;9.182;2023-11-21T11:15:58;154414.09;;;9.34;100.00
38852;BME280;24605;50.092;9.182;2023-11-21T11:18:25;154522.16;;;9.77;100.00
38852;BME280;24605;50.092;9.182;2023-11-21T11:20:53;154510.44;;;9.72;100.00
38852;BME280;24605;50.092;9.182;2023-11-21T11:23:46;154460.94;;;9.52;100.00
38852;BME280;24605;50.092;9.182;2023-11-21T11:26:23;154659.03;;;10.31;100.00
38852;BME280;24605;50.092;9.182;2023-11-21T11:29:02;154719.00;;;10.55;100.00
38852;BME280;24605;50.092;9.182;2023-11-21T11:31:40;154785.47;;;10.81;100.00
38852;BME280;24605;50.092;9.182;2023-11-21T11:34:20;154526.13;;;9.78;100.00
38852;BME280;24605;50.092;9.182;2023-11-21T11:36:55;154596.44;;;10.06;100.00
38852;BME280;24605;50.092;9.182;2023-11-21T11:39:29;154563.84;;;9.93;100.00
38852;BME280;24605;50.092;9.182;2023-11-21T11:41:57;154621.22;;;10.16;100.00
38852;BME280;24605;50.092;9.182;2023-11-21T11:44:47;154689.03;;;10.43;100.00
38852;BME280;24605;50.092;9.182;2023-11-21T11:47:20;154616.00;;;10.14;100.00
38852;BME280;24605;50.092;9.182;2023-11-21T11:50:01;154645.97;;;10.26;100.00
38852;BME280;24605;50.092;9.182;2023-11-21T11:52:35;154591.25;;;10.04;100.00
38852;BME280;24605;50.092;9.182;2023-11-21T11:55:02;154625.13;;;10.17;100.00
38852;BME280;24605;50.092;9.182;2023-11-21T11:57:30;154674.69;;;10.37;100.00
38852;BME280;24605;50.092;9.182;2023-11-21T12:00:14;154716.41;;;10.54;100.00
38852;BME280;24605;50.092;9.182;2023-11-21T12:02:47;154692.94;;;10.44;100.00
38852;BME280;24605;50.092;9.182;2023-11-21T12:05:15;154632.94;;;10.21;100.00
38852;BME280;24605;50.092;9.182;2023-11-21T12:07:44;154634.22;;;10.21;100.00
38852;BME280;24605;50.092;9.182;2023-11-21T12:10:13;154728.13;;;10.58;100.00
38852;BME280;24605;50.092;9.182;2023-11-21T12:12:46;154719.00;;;10.55;100.00
38852;BME280;24605;50.092;9.182;2023-11-21T12:15:13;154572.97;;;9.97;100.00
38852;BME280;24605;50.092;9.182;2023-11-21T12:17:41;154543.00;;;9.85;100.00
38852;BME280;24605;50.092;9.182;2023-11-21T12:20:11;154604.25;;;10.09;100.00
38852;BME280;24605;50.092;9.182;2023-11-21T12:22:43;154484.38;;;9.62;100.00
38852;BME280;24605;50.092;9.182;2023-11-21T12:25:09;154468.78;;;9.55;100.00
38852;BME280;24605;50.092;9.182;2023-11-21T12:27:41;154501.34;;;9.68;100.00
38852;BME280;24605;50.092;9.182;2023-11-21T12:30:08;154523.50;;;9.77;100.00
38852;BME280;24605;50.092;9.182;2023-11-21T12:32:38;154484.38;;;9.62;100.00
38852;BME280;24605;50.092;9.182;2023-11-21T12:35:05;154500.06;;;9.68;100.00
38852;BME280;24605;50.092;9.182;2023-11-21T12:37:33;154479.22;;;9.60;100.00
38852;BME280;24605;50.092;9.182;2023-11-21T12:40:00;154399.75;;;9.28;100.00
38852;BME280;24605;50.092;9.182;2023-11-21T12:42:27;154360.66;;;9.13;100.00
38852;BME280;24605;50.092;9.182;2023-11-21T12:45:10;154273.44;;;8.78;100.00
38852;BME280;24605;50.092;9.182;2023-11-21T12:47:41;154312.50;;;8.93;100.00
38852;BME280;24605;50.092;9.182;2023-11-21T12:50:08;154316.38;;;8.95;100.00
38852;BME280;24605;50.092;9.182;2023-11-21T12:52:41;154273.44;;;8.78;100.00